sensor_id;sensor_type;location;lat;lon;timestamp;temperature;humidity
21174;DHT22;10744;50.854;4.380;2022-07-03T00:02:09;19.70;99.90
21174;DHT22;10744;50.854;4.380;2022-07-03T00:04:34;19.60;99.90
21174;DHT22;10744;50.854;4.380;2022-07-03T00:07:00;19.70;99.90
21174;DHT22;10744;50.854;4.380;2022-07-03T00:09:26;19.70;99.90
21174;DHT22;10744;50.854;4.380;2022-07-03T00:11:52;19.80;99.90
21174;DHT22;10744;50.854;4.380;2022-07-03T00:14:18;19.80;99.90
21174;DHT22;10744;50.854;4.380;2022-07-03T00:16:44;19.80;99.90
21174;DHT22;10744;50.854;4.380;2022-07-03T00:19:09;19.70;99.90
21174;DHT22;10744;50.854;4.380;2022-07-03T00:21:41;19.70;99.90
21174;DHT22;10744;50.854;4.380;2022-07-03T00:24:13;19.70;99.90
21174;DHT22;10744;50.854;4.380;2022-07-03T00:26:41;19.80;99.90
21174;DHT22;10744;50.854;4.380;2022-07-03T00:29:09;19.80;99.90
21174;DHT22;10744;50.854;4.380;2022-07-03T00:31:35;19.70;99.90
21174;DHT22;10744;50.854;4.380;2022-07-03T00:34:02;19.70;99.90
21174;DHT22;10744;50.854;4.380;2022-07-03T00:36:36;19.70;99.90
21174;DHT22;10744;50.854;4.380;2022-07-03T00:39:03;19.70;99.90
21174;DHT22;10744;50.854;4.380;2022-07-03T00:41:33;19.80;99.90
21174;DHT22;10744;50.854;4.380;2022-07-03T00:43:59;19.80;99.90
21174;DHT22;10744;50.854;4.380;2022-07-03T00:46:26;19.70;99.90
21174;DHT22;10744;50.854;4.380;2022-07-03T00:48:53;19.80;99.90
21174;DHT22;10744;50.854;4.380;2022-07-03T00:51:24;19.70;99.90
21174;DHT22;10744;50.854;4.380;2022-07-03T00:53:56;19.80;99.90
21174;DHT22;10744;50.854;4.380;2022-07-03T00:56:27;19.80;99.90
21174;DHT22;10744;50.854;4.380;2022-07-03T00:58:58;19.70;99.90
21174;DHT22;10744;50.854;4.380;2022-07-03T01:01:28;19.70;99.90
21174;DHT22;10744;50.854;4.380;2022-07-03T01:04:04;19.70;99.90
21174;DHT22;10744;50.854;4.380;2022-07-03T01:06:37;19.60;99.90
21174;DHT22;10744;50.854;4.380;2022-07-03T01:09:05;19.60;99.90
21174;DHT22;10744;50.854;4.380;2022-07-03T01:11:56;19.60;99.90
21174;DHT22;10744;50.854;4.380;2022-07-03T01:14:28;19.50;99.90
21174;DHT22;10744;50.854;4.380;2022-07-03T01:17:04;19.50;99.90
21174;DHT22;10744;50.854;4.380;2022-07-03T01:24:43;19.40;99.90
21174;DHT22;10744;50.854;4.380;2022-07-03T01:27:18;19.50;99.90
21174;DHT22;10744;50.854;4.380;2022-07-03T01:29:51;19.50;99.90
21174;DHT22;10744;50.854;4.380;2022-07-03T01:32:19;19.40;99.90
21174;DHT22;10744;50.854;4.380;2022-07-03T01:34:51;19.30;99.90
21174;DHT22;10744;50.854;4.380;2022-07-03T01:37:20;19.30;99.90
21174;DHT22;10744;50.854;4.380;2022-07-03T01:39:49;19.30;99.90
21174;DHT22;10744;50.854;4.380;2022-07-03T01:42:18;19.20;99.90
21174;DHT22;10744;50.854;4.380;2022-07-03T01:44:46;19.20;99.90
21174;DHT22;10744;50.854;4.380;2022-07-03T01:47:14;19.20;99.90
21174;DHT22;10744;50.854;4.380;2022-07-03T01:49:41;19.20;99.90
21174;DHT22;10744;50.854;4.380;2022-07-03T01:52:10;19.10;99.90
21174;DHT22;10744;50.854;4.380;2022-07-03T01:54:39;19.10;99.90
21174;DHT22;10744;50.854;4.380;2022-07-03T01:57:08;19.00;99.90
21174;DHT22;10744;50.854;4.380;2022-07-03T01:59:34;19.00;99.90
21174;DHT22;10744;50.854;4.380;2022-07-03T02:02:09;19.00;99.90
21174;DHT22;10744;50.854;4.380;2022-07-03T02:05:34;19.00;99.90
21174;DHT22;10744;50.854;4.380;2022-07-03T02:08:12;19.00;99.90
21174;DHT22;10744;50.854;4.380;2022-07-03T02:10:42;19.10;99.90
21174;DHT22;10744;50.854;4.380;2022-07-03T02:13:22;18.90;99.90
21174;DHT22;10744;50.854;4.380;2022-07-03T02:15:50;19.00;99.90
21174;DHT22;10744;50.854;4.380;2022-07-03T02:18:35;18.80;99.90
21174;DHT22;10744;50.854;4.380;2022-07-03T02:21:36;18.80;99.90
21174;DHT22;10744;50.854;4.380;2022-07-03T02:24:00;18.80;99.90
21174;DHT22;10744;50.854;4.380;2022-07-03T02:26:32;18.70;99.90
21174;DHT22;10744;50.854;4.380;2022-07-03T02:29:06;18.70;99.90
21174;DHT22;10744;50.854;4.380;2022-07-03T02:31:46;18.70;99.90
21174;DHT22;10744;50.854;4.380;2022-07-03T02:34:16;18.80;99.90
21174;DHT22;10744;50.854;4.380;2022-07-03T02:36:45;18.70;99.90
21174;DHT22;10744;50.854;4.380;2022-07-03T02:39:19;18.70;99.90
21174;DHT22;10744;50.854;4.380;2022-07-03T02:41:56;18.70;99.90
21174;DHT22;10744;50.854;4.380;2022-07-03T02:49:41;18.70;99.90
21174;DHT22;10744;50.854;4.380;2022-07-03T02:52:26;18.60;99.90
21174;DHT22;10744;50.854;4.380;2022-07-03T02:54:55;18.60;99.90
21174;DHT22;10744;50.854;4.380;2022-07-03T02:57:22;18.60;99.90
21174;DHT22;10744;50.854;4.380;2022-07-03T02:59:56;18.60;99.90
21174;DHT22;10744;50.854;4.380;2022-07-03T03:05:02;18.60;99.90
21174;DHT22;10744;50.854;4.380;2022-07-03T03:10:19;18.60;99.90
21174;DHT22;10744;50.854;4.380;2022-07-03T03:12:47;18.50;99.90
21174;DHT22;10744;50.854;4.380;2022-07-03T03:15:20;18.50;99.90
21174;DHT22;10744;50.854;4.380;2022-07-03T03:17:50;18.60;99.90
21174;DHT22;10744;50.854;4.380;2022-07-03T03:20:17;18.60;99.90
21174;DHT22;10744;50.854;4.380;2022-07-03T03:25:28;18.60;99.90
21174;DHT22;10744;50.854;4.380;2022-07-03T03:27:54;18.50;99.90
21174;DHT22;10744;50.854;4.380;2022-07-03T03:30:20;18.50;99.90
21174;DHT22;10744;50.854;4.380;2022-07-03T03:32:46;18.40;99.90
21174;DHT22;10744;50.854;4.380;2022-07-03T03:35:12;18.50;99.90
21174;DHT22;10744;50.854;4.380;2022-07-03T03:37:38;18.50;99.90
21174;DHT22;10744;50.854;4.380;2022-07-03T03:40:04;18.50;99.90
21174;DHT22;10744;50.854;4.380;2022-07-03T03:42:30;18.50;99.90
21174;DHT22;10744;50.854;4.380;2022-07-03T03:44:56;18.40;99.90
21174;DHT22;10744;50.854;4.380;2022-07-03T03:47:22;18.40;99.90
21174;DHT22;10744;50.854;4.380;2022-07-03T03:49:47;18.40;99.90
21174;DHT22;10744;50.854;4.380;2022-07-03T03:52:13;18.30;99.90
21174;DHT22;10744;50.854;4.380;2022-07-03T03:54:39;18.30;99.90
21174;DHT22;10744;50.854;4.380;2022-07-03T03:57:18;18.40;99.90
21174;DHT22;10744;50.854;4.380;2022-07-03T03:59:44;18.30;99.90
21174;DHT22;10744;50.854;4.380;2022-07-03T04:02:10;18.30;99.90
21174;DHT22;10744;50.854;4.380;2022-07-03T04:04:36;18.30;99.90
21174;DHT22;10744;50.854;4.380;2022-07-03T04:07:01;18.30;99.90
21174;DHT22;10744;50.854;4.380;2022-07-03T04:09:27;18.30;99.90
21174;DHT22;10744;50.854;4.380;2022-07-03T04:11:53;18.30;99.90
21174;DHT22;10744;50.854;4.380;2022-07-03T04:14:18;18.30;99.90
21174;DHT22;10744;50.854;4.380;2022-07-03T04:16:44;18.10;99.90
21174;DHT22;10744;50.854;4.380;2022-07-03T04:19:10;18.00;99.90
21174;DHT22;10744;50.854;4.380;2022-07-03T04:21:35;18.00;99.90
21174;DHT22;10744;50.854;4.380;2022-07-03T04:24:01;17.90;99.90
21174;DHT22;10744;50.854;4.380;2022-07-03T04:26:27;18.00;99.90
21174;DHT22;10744;50.854;4.380;2022-07-03T04:28:52;18.00;99.90
21174;DHT22;10744;50.854;4.380;2022-07-03T04:31:18;17.90;99.90
21174;DHT22;10744;50.854;4.380;2022-07-03T04:33:44;18.00;99.90
21174;DHT22;10744;50.854;4.380;2022-07-03T04:36:09;17.90;99.90
21174;DHT22;10744;50.854;4.380;2022-07-03T04:38:35;17.90;99.90
21174;DHT22;10744;50.854;4.380;2022-07-03T04:41:00;17.90;99.90
21174;DHT22;10744;50.854;4.380;2022-07-03T04:43:26;17.90;99.90
21174;DHT22;10744;50.854;4.380;2022-07-03T04:45:52;17.90;99.90
21174;DHT22;10744;50.854;4.380;2022-07-03T04:48:17;17.90;99.90
21174;DHT22;10744;50.854;4.380;2022-07-03T04:50:43;17.90;99.90
21174;DHT22;10744;50.854;4.380;2022-07-03T04:53:08;17.80;99.90
21174;DHT22;10744;50.854;4.380;2022-07-03T04:55:34;17.80;99.90
21174;DHT22;10744;50.854;4.380;2022-07-03T04:58:00;17.70;99.90
21174;DHT22;10744;50.854;4.380;2022-07-03T05:00:26;17.60;99.90
21174;DHT22;10744;50.854;4.380;2022-07-03T05:02:51;17.60;99.90
21174;DHT22;10744;50.854;4.380;2022-07-03T05:05:17;17.60;99.90
21174;DHT22;10744;50.854;4.380;2022-07-03T05:07:44;17.60;99.90
21174;DHT22;10744;50.854;4.380;2022-07-03T05:10:10;17.60;99.90
21174;DHT22;10744;50.854;4.380;2022-07-03T05:12:35;17.60;99.90
21174;DHT22;10744;50.854;4.380;2022-07-03T05:15:01;17.60;99.90
21174;DHT22;10744;50.854;4.380;2022-07-03T05:17:26;17.60;99.90
21174;DHT22;10744;50.854;4.380;2022-07-03T05:19:52;17.70;99.90
21174;DHT22;10744;50.854;4.380;2022-07-03T05:22:38;17.80;99.90
21174;DHT22;10744;50.854;4.380;2022-07-03T05:25:05;17.80;99.90
21174;DHT22;10744;50.854;4.380;2022-07-03T05:27:30;17.70;99.90
21174;DHT22;10744;50.854;4.380;2022-07-03T05:29:56;17.70;99.90
21174;DHT22;10744;50.854;4.380;2022-07-03T05:32:22;17.70;99.90
21174;DHT22;10744;50.854;4.380;2022-07-03T05:34:47;17.80;99.90
21174;DHT22;10744;50.854;4.380;2022-07-03T05:37:13;17.80;99.90
21174;DHT22;10744;50.854;4.380;2022-07-03T05:39:38;17.80;99.90
21174;DHT22;10744;50.854;4.380;2022-07-03T05:42:04;17.80;99.90
21174;DHT22;10744;50.854;4.380;2022-07-03T05:44:30;17.70;99.90
21174;DHT22;10744;50.854;4.380;2022-07-03T05:46:56;17.70;99.90
21174;DHT22;10744;50.854;4.380;2022-07-03T05:49:22;17.70;99.90
21174;DHT22;10744;50.854;4.380;2022-07-03T05:51:48;17.70;99.90
21174;DHT22;10744;50.854;4.380;2022-07-03T05:54:13;17.60;99.90
21174;DHT22;10744;50.854;4.380;2022-07-03T05:56:39;17.60;99.90
21174;DHT22;10744;50.854;4.380;2022-07-03T05:59:05;17.60;99.90
21174;DHT22;10744;50.854;4.380;2022-07-03T06:01:30;17.70;99.90
21174;DHT22;10744;50.854;4.380;2022-07-03T06:03:56;17.80;99.90
21174;DHT22;10744;50.854;4.380;2022-07-03T06:06:21;17.80;99.90
21174;DHT22;10744;50.854;4.380;2022-07-03T06:08:47;17.90;99.90
21174;DHT22;10744;50.854;4.380;2022-07-03T06:11:13;18.00;99.90
21174;DHT22;10744;50.854;4.380;2022-07-03T06:13:38;18.00;99.90
21174;DHT22;10744;50.854;4.380;2022-07-03T06:16:04;18.00;99.90
21174;DHT22;10744;50.854;4.380;2022-07-03T06:18:30;18.10;99.90
21174;DHT22;10744;50.854;4.380;2022-07-03T06:20:55;18.10;99.90
21174;DHT22;10744;50.854;4.380;2022-07-03T06:23:21;18.10;99.90
21174;DHT22;10744;50.854;4.380;2022-07-03T06:25:47;18.20;99.90
21174;DHT22;10744;50.854;4.380;2022-07-03T06:28:12;18.30;99.90
21174;DHT22;10744;50.854;4.380;2022-07-03T06:30:38;18.30;99.90
21174;DHT22;10744;50.854;4.380;2022-07-03T06:33:04;18.30;99.90
21174;DHT22;10744;50.854;4.380;2022-07-03T06:35:29;18.40;99.90
21174;DHT22;10744;50.854;4.380;2022-07-03T06:37:55;18.40;99.90
21174;DHT22;10744;50.854;4.380;2022-07-03T06:40:21;18.40;99.90
21174;DHT22;10744;50.854;4.380;2022-07-03T06:42:46;18.30;99.90
21174;DHT22;10744;50.854;4.380;2022-07-03T06:45:12;18.30;99.90
21174;DHT22;10744;50.854;4.380;2022-07-03T06:47:38;18.40;99.90
21174;DHT22;10744;50.854;4.380;2022-07-03T06:50:05;18.40;99.90
21174;DHT22;10744;50.854;4.380;2022-07-03T06:52:31;18.40;99.90
21174;DHT22;10744;50.854;4.380;2022-07-03T06:54:57;18.40;99.90
21174;DHT22;10744;50.854;4.380;2022-07-03T06:57:23;18.50;99.90
21174;DHT22;10744;50.854;4.380;2022-07-03T06:59:48;18.40;99.90
21174;DHT22;10744;50.854;4.380;2022-07-03T07:02:14;18.50;99.90
21174;DHT22;10744;50.854;4.380;2022-07-03T07:04:41;18.70;99.90
21174;DHT22;10744;50.854;4.380;2022-07-03T07:07:06;18.60;99.90
21174;DHT22;10744;50.854;4.380;2022-07-03T07:09:32;18.70;99.90
21174;DHT22;10744;50.854;4.380;2022-07-03T07:11:58;18.70;99.90
21174;DHT22;10744;50.854;4.380;2022-07-03T07:14:23;18.80;99.90
21174;DHT22;10744;50.854;4.380;2022-07-03T07:16:49;18.80;99.90
21174;DHT22;10744;50.854;4.380;2022-07-03T07:19:15;19.10;99.90
21174;DHT22;10744;50.854;4.380;2022-07-03T07:21:41;19.20;99.90
21174;DHT22;10744;50.854;4.380;2022-07-03T07:24:06;19.10;99.90
21174;DHT22;10744;50.854;4.380;2022-07-03T07:26:32;19.10;99.90
21174;DHT22;10744;50.854;4.380;2022-07-03T07:28:58;19.10;99.90
21174;DHT22;10744;50.854;4.380;2022-07-03T07:31:23;19.10;99.90
21174;DHT22;10744;50.854;4.380;2022-07-03T07:33:49;19.20;99.90
21174;DHT22;10744;50.854;4.380;2022-07-03T07:36:15;19.40;99.90
21174;DHT22;10744;50.854;4.380;2022-07-03T07:38:40;19.50;99.90
21174;DHT22;10744;50.854;4.380;2022-07-03T07:41:06;19.60;99.90
21174;DHT22;10744;50.854;4.380;2022-07-03T07:43:31;19.80;99.90
21174;DHT22;10744;50.854;4.380;2022-07-03T07:45:57;19.80;99.90
21174;DHT22;10744;50.854;4.380;2022-07-03T07:48:23;19.90;99.90
21174;DHT22;10744;50.854;4.380;2022-07-03T07:50:49;19.90;99.90
21174;DHT22;10744;50.854;4.380;2022-07-03T07:53:16;20.00;99.90
21174;DHT22;10744;50.854;4.380;2022-07-03T07:55:41;20.00;99.90
21174;DHT22;10744;50.854;4.380;2022-07-03T07:58:07;19.90;99.90
21174;DHT22;10744;50.854;4.380;2022-07-03T08:00:33;20.00;99.90
21174;DHT22;10744;50.854;4.380;2022-07-03T08:02:59;20.10;99.90
21174;DHT22;10744;50.854;4.380;2022-07-03T08:05:43;20.00;99.90
21174;DHT22;10744;50.854;4.380;2022-07-03T08:08:14;20.10;99.90
21174;DHT22;10744;50.854;4.380;2022-07-03T08:10:45;20.10;99.90
21174;DHT22;10744;50.854;4.380;2022-07-03T08:13:12;20.20;99.90
21174;DHT22;10744;50.854;4.380;2022-07-03T08:15:38;20.30;99.90
21174;DHT22;10744;50.854;4.380;2022-07-03T08:18:05;20.40;99.90
21174;DHT22;10744;50.854;4.380;2022-07-03T08:20:31;20.40;99.90
21174;DHT22;10744;50.854;4.380;2022-07-03T08:22:57;20.40;99.90
21174;DHT22;10744;50.854;4.380;2022-07-03T08:25:23;20.40;99.90
21174;DHT22;10744;50.854;4.380;2022-07-03T08:27:49;20.40;99.90
21174;DHT22;10744;50.854;4.380;2022-07-03T08:30:15;20.20;99.90
21174;DHT22;10744;50.854;4.380;2022-07-03T08:32:50;20.50;99.90
21174;DHT22;10744;50.854;4.380;2022-07-03T08:35:16;20.70;99.90
21174;DHT22;10744;50.854;4.380;2022-07-03T08:37:42;20.90;99.90
21174;DHT22;10744;50.854;4.380;2022-07-03T08:40:10;20.90;99.90
21174;DHT22;10744;50.854;4.380;2022-07-03T08:42:38;21.00;99.90
21174;DHT22;10744;50.854;4.380;2022-07-03T08:45:08;20.80;99.90
21174;DHT22;10744;50.854;4.380;2022-07-03T08:47:38;20.90;99.90
21174;DHT22;10744;50.854;4.380;2022-07-03T08:50:06;21.00;99.90
21174;DHT22;10744;50.854;4.380;2022-07-03T08:52:33;20.90;99.90
21174;DHT22;10744;50.854;4.380;2022-07-03T08:54:59;20.80;99.90
21174;DHT22;10744;50.854;4.380;2022-07-03T08:57:26;20.80;99.90
21174;DHT22;10744;50.854;4.380;2022-07-03T08:59:53;20.60;99.90
21174;DHT22;10744;50.854;4.380;2022-07-03T09:02:20;20.70;99.90
21174;DHT22;10744;50.854;4.380;2022-07-03T09:04:47;20.60;99.90
21174;DHT22;10744;50.854;4.380;2022-07-03T09:07:14;20.80;99.90
21174;DHT22;10744;50.854;4.380;2022-07-03T09:09:43;20.90;99.90
21174;DHT22;10744;50.854;4.380;2022-07-03T09:12:10;21.00;99.90
21174;DHT22;10744;50.854;4.380;2022-07-03T09:14:36;21.00;99.90
21174;DHT22;10744;50.854;4.380;2022-07-03T09:17:02;21.10;99.90
21174;DHT22;10744;50.854;4.380;2022-07-03T09:19:45;21.00;99.90
21174;DHT22;10744;50.854;4.380;2022-07-03T09:22:26;21.00;99.90
21174;DHT22;10744;50.854;4.380;2022-07-03T09:24:54;20.90;99.90
21174;DHT22;10744;50.854;4.380;2022-07-03T09:27:23;20.90;99.90
21174;DHT22;10744;50.854;4.380;2022-07-03T09:30:00;20.90;99.90
21174;DHT22;10744;50.854;4.380;2022-07-03T09:32:31;21.10;99.90
21174;DHT22;10744;50.854;4.380;2022-07-03T09:35:19;21.20;99.90
21174;DHT22;10744;50.854;4.380;2022-07-03T09:38:03;21.30;99.90
21174;DHT22;10744;50.854;4.380;2022-07-03T09:40:50;21.30;99.90
21174;DHT22;10744;50.854;4.380;2022-07-03T09:43:23;21.40;99.90
21174;DHT22;10744;50.854;4.380;2022-07-03T09:45:55;21.60;99.90
21174;DHT22;10744;50.854;4.380;2022-07-03T09:48:35;21.80;99.90
21174;DHT22;10744;50.854;4.380;2022-07-03T09:51:19;21.90;99.90
21174;DHT22;10744;50.854;4.380;2022-07-03T09:53:54;21.80;99.90
21174;DHT22;10744;50.854;4.380;2022-07-03T09:56:22;21.70;99.90
21174;DHT22;10744;50.854;4.380;2022-07-03T10:01:25;21.70;99.90
21174;DHT22;10744;50.854;4.380;2022-07-03T10:03:51;21.90;99.90
21174;DHT22;10744;50.854;4.380;2022-07-03T10:06:17;22.20;99.90
21174;DHT22;10744;50.854;4.380;2022-07-03T10:08:42;22.20;99.90
21174;DHT22;10744;50.854;4.380;2022-07-03T10:11:09;22.20;99.90
21174;DHT22;10744;50.854;4.380;2022-07-03T10:13:40;22.30;99.90
21174;DHT22;10744;50.854;4.380;2022-07-03T10:16:06;22.40;99.90
21174;DHT22;10744;50.854;4.380;2022-07-03T10:18:36;22.50;99.90
21174;DHT22;10744;50.854;4.380;2022-07-03T10:21:08;22.70;99.90
21174;DHT22;10744;50.854;4.380;2022-07-03T10:23:35;22.60;99.90
21174;DHT22;10744;50.854;4.380;2022-07-03T10:26:01;22.60;99.50
21174;DHT22;10744;50.854;4.380;2022-07-03T10:28:27;22.50;99.10
21174;DHT22;10744;50.854;4.380;2022-07-03T10:30:55;22.50;99.40
21174;DHT22;10744;50.854;4.380;2022-07-03T10:33:21;22.60;99.50
21174;DHT22;10744;50.854;4.380;2022-07-03T10:35:50;22.50;99.30
21174;DHT22;10744;50.854;4.380;2022-07-03T10:41:01;22.50;99.50
21174;DHT22;10744;50.854;4.380;2022-07-03T10:43:50;22.40;99.40
21174;DHT22;10744;50.854;4.380;2022-07-03T10:46:35;22.20;99.90
21174;DHT22;10744;50.854;4.380;2022-07-03T10:49:13;22.40;99.30
21174;DHT22;10744;50.854;4.380;2022-07-03T11:07:25;22.50;98.10
21174;DHT22;10744;50.854;4.380;2022-07-03T11:15:43;22.70;98.00
21174;DHT22;10744;50.854;4.380;2022-07-03T11:25:52;23.10;98.00
21174;DHT22;10744;50.854;4.380;2022-07-03T11:33:45;23.30;97.50
21174;DHT22;10744;50.854;4.380;2022-07-03T11:38:40;22.90;96.30
21174;DHT22;10744;50.854;4.380;2022-07-03T11:41:09;22.70;96.40
21174;DHT22;10744;50.854;4.380;2022-07-03T11:43:35;22.60;96.30
21174;DHT22;10744;50.854;4.380;2022-07-03T11:46:02;22.60;95.00
21174;DHT22;10744;50.854;4.380;2022-07-03T11:48:29;22.80;94.70
21174;DHT22;10744;50.854;4.380;2022-07-03T11:51:03;22.80;94.90
21174;DHT22;10744;50.854;4.380;2022-07-03T11:53:30;22.80;94.00
21174;DHT22;10744;50.854;4.380;2022-07-03T11:56:02;22.90;94.30
21174;DHT22;10744;50.854;4.380;2022-07-03T11:58:50;23.00;94.30
21174;DHT22;10744;50.854;4.380;2022-07-03T12:03:48;22.90;94.80
21174;DHT22;10744;50.854;4.380;2022-07-03T12:06:16;22.90;94.60
21174;DHT22;10744;50.854;4.380;2022-07-03T12:08:42;22.90;94.50
21174;DHT22;10744;50.854;4.380;2022-07-03T12:11:16;22.90;94.60
21174;DHT22;10744;50.854;4.380;2022-07-03T12:13:42;23.00;94.60
21174;DHT22;10744;50.854;4.380;2022-07-03T12:16:13;23.10;94.90
21174;DHT22;10744;50.854;4.380;2022-07-03T12:21:08;23.00;94.20
21174;DHT22;10744;50.854;4.380;2022-07-03T12:23:48;23.00;93.80
21174;DHT22;10744;50.854;4.380;2022-07-03T12:26:30;23.20;93.10
21174;DHT22;10744;50.854;4.380;2022-07-03T12:28:57;23.50;92.50
21174;DHT22;10744;50.854;4.380;2022-07-03T12:31:24;23.70;92.50
21174;DHT22;10744;50.854;4.380;2022-07-03T12:33:50;23.80;92.60
21174;DHT22;10744;50.854;4.380;2022-07-03T12:36:15;23.70;92.30
21174;DHT22;10744;50.854;4.380;2022-07-03T12:38:42;23.70;92.40
21174;DHT22;10744;50.854;4.380;2022-07-03T12:41:09;23.60;92.10
21174;DHT22;10744;50.854;4.380;2022-07-03T12:43:42;23.70;92.60
21174;DHT22;10744;50.854;4.380;2022-07-03T12:46:33;23.70;93.00
21174;DHT22;10744;50.854;4.380;2022-07-03T12:49:07;23.90;92.90
21174;DHT22;10744;50.854;4.380;2022-07-03T12:51:44;23.90;92.70
21174;DHT22;10744;50.854;4.380;2022-07-03T12:54:22;23.80;92.80
21174;DHT22;10744;50.854;4.380;2022-07-03T13:02:35;24.00;93.30
21174;DHT22;10744;50.854;4.380;2022-07-03T13:07:52;24.60;92.00
21174;DHT22;10744;50.854;4.380;2022-07-03T13:10:20;24.60;92.20
21174;DHT22;10744;50.854;4.380;2022-07-03T13:12:58;24.70;91.90
21174;DHT22;10744;50.854;4.380;2022-07-03T13:15:26;24.70;91.10
21174;DHT22;10744;50.854;4.380;2022-07-03T13:20:31;25.00;91.40
21174;DHT22;10744;50.854;4.380;2022-07-03T13:23:02;24.80;90.50
21174;DHT22;10744;50.854;4.380;2022-07-03T13:25:30;24.80;90.60
21174;DHT22;10744;50.854;4.380;2022-07-03T13:28:10;24.70;91.20
21174;DHT22;10744;50.854;4.380;2022-07-03T13:30:38;24.80;90.80
21174;DHT22;10744;50.854;4.380;2022-07-03T13:33:04;24.80;90.80
21174;DHT22;10744;50.854;4.380;2022-07-03T13:35:30;25.00;91.00
21174;DHT22;10744;50.854;4.380;2022-07-03T13:37:56;25.20;90.80
21174;DHT22;10744;50.854;4.380;2022-07-03T13:40:22;25.50;90.30
21174;DHT22;10744;50.854;4.380;2022-07-03T13:42:47;25.90;90.10
21174;DHT22;10744;50.854;4.380;2022-07-03T13:45:13;25.70;89.40
21174;DHT22;10744;50.854;4.380;2022-07-03T13:47:39;25.60;90.20
21174;DHT22;10744;50.854;4.380;2022-07-03T13:50:04;25.60;90.20
21174;DHT22;10744;50.854;4.380;2022-07-03T13:52:30;25.40;90.60
21174;DHT22;10744;50.854;4.380;2022-07-03T13:54:56;25.00;91.20
21174;DHT22;10744;50.854;4.380;2022-07-03T13:57:22;24.90;91.50
21174;DHT22;10744;50.854;4.380;2022-07-03T13:59:48;24.80;91.30
21174;DHT22;10744;50.854;4.380;2022-07-03T14:02:14;24.80;91.30
21174;DHT22;10744;50.854;4.380;2022-07-03T14:04:40;24.70;91.40
21174;DHT22;10744;50.854;4.380;2022-07-03T14:07:06;24.90;91.20
21174;DHT22;10744;50.854;4.380;2022-07-03T14:09:32;25.10;90.90
21174;DHT22;10744;50.854;4.380;2022-07-03T14:11:57;25.20;90.00
21174;DHT22;10744;50.854;4.380;2022-07-03T14:14:24;25.50;89.90
21174;DHT22;10744;50.854;4.380;2022-07-03T14:16:50;25.60;88.70
21174;DHT22;10744;50.854;4.380;2022-07-03T14:19:15;25.60;87.70
21174;DHT22;10744;50.854;4.380;2022-07-03T14:21:41;25.50;87.80
21174;DHT22;10744;50.854;4.380;2022-07-03T14:24:07;25.50;88.50
21174;DHT22;10744;50.854;4.380;2022-07-03T14:26:32;25.50;88.60
21174;DHT22;10744;50.854;4.380;2022-07-03T14:29:16;25.80;88.40
21174;DHT22;10744;50.854;4.380;2022-07-03T14:32:01;25.80;88.30
21174;DHT22;10744;50.854;4.380;2022-07-03T14:34:45;26.00;86.80
21174;DHT22;10744;50.854;4.380;2022-07-03T14:37:10;25.90;86.50
21174;DHT22;10744;50.854;4.380;2022-07-03T14:39:36;25.90;86.80
21174;DHT22;10744;50.854;4.380;2022-07-03T14:42:02;25.80;86.80
21174;DHT22;10744;50.854;4.380;2022-07-03T14:44:28;25.40;88.50
21174;DHT22;10744;50.854;4.380;2022-07-03T14:46:55;25.40;88.00
21174;DHT22;10744;50.854;4.380;2022-07-03T14:49:21;25.10;89.00
21174;DHT22;10744;50.854;4.380;2022-07-03T14:51:47;25.10;89.50
21174;DHT22;10744;50.854;4.380;2022-07-03T14:54:17;25.20;89.60
21174;DHT22;10744;50.854;4.380;2022-07-03T14:56:55;25.20;89.20
21174;DHT22;10744;50.854;4.380;2022-07-03T14:59:39;25.30;89.20
21174;DHT22;10744;50.854;4.380;2022-07-03T15:02:19;25.30;88.30
21174;DHT22;10744;50.854;4.380;2022-07-03T15:05:06;25.20;88.00
21174;DHT22;10744;50.854;4.380;2022-07-03T15:10:24;25.30;88.10
21174;DHT22;10744;50.854;4.380;2022-07-03T15:12:52;25.50;88.30
21174;DHT22;10744;50.854;4.380;2022-07-03T15:15:20;25.90;88.10
21174;DHT22;10744;50.854;4.380;2022-07-03T15:17:52;26.40;86.90
21174;DHT22;10744;50.854;4.380;2022-07-03T15:20:19;26.90;85.20
21174;DHT22;10744;50.854;4.380;2022-07-03T15:22:47;27.00;84.00
21174;DHT22;10744;50.854;4.380;2022-07-03T15:25:17;27.20;82.10
21174;DHT22;10744;50.854;4.380;2022-07-03T15:27:46;26.90;82.80
21174;DHT22;10744;50.854;4.380;2022-07-03T15:30:16;26.60;83.60
21174;DHT22;10744;50.854;4.380;2022-07-03T15:32:45;26.20;84.10
21174;DHT22;10744;50.854;4.380;2022-07-03T15:35:15;25.80;83.90
21174;DHT22;10744;50.854;4.380;2022-07-03T15:38:09;25.40;84.40
21174;DHT22;10744;50.854;4.380;2022-07-03T15:48:41;24.40;87.60
21174;DHT22;10744;50.854;4.380;2022-07-03T15:51:30;24.60;87.10
21174;DHT22;10744;50.854;4.380;2022-07-03T15:54:01;25.40;85.10
21174;DHT22;10744;50.854;4.380;2022-07-03T15:56:34;25.10;85.00
21174;DHT22;10744;50.854;4.380;2022-07-03T15:59:02;24.90;85.90
21174;DHT22;10744;50.854;4.380;2022-07-03T16:01:39;24.60;85.90
21174;DHT22;10744;50.854;4.380;2022-07-03T16:07:18;25.20;84.10
21174;DHT22;10744;50.854;4.380;2022-07-03T16:09:45;24.80;85.70
21174;DHT22;10744;50.854;4.380;2022-07-03T16:12:14;24.90;84.80
21174;DHT22;10744;50.854;4.380;2022-07-03T16:14:50;25.70;83.20
21174;DHT22;10744;50.854;4.380;2022-07-03T16:17:20;26.10;82.50
21174;DHT22;10744;50.854;4.380;2022-07-03T16:19:48;25.80;83.40
21174;DHT22;10744;50.854;4.380;2022-07-03T16:22:14;25.40;82.90
21174;DHT22;10744;50.854;4.380;2022-07-03T16:24:41;24.90;84.10
21174;DHT22;10744;50.854;4.380;2022-07-03T16:27:14;24.80;85.10
21174;DHT22;10744;50.854;4.380;2022-07-03T16:29:40;24.60;85.80
21174;DHT22;10744;50.854;4.380;2022-07-03T16:32:12;24.60;86.00
21174;DHT22;10744;50.854;4.380;2022-07-03T16:35:02;24.80;86.30
21174;DHT22;10744;50.854;4.380;2022-07-03T16:38:23;24.90;85.60
21174;DHT22;10744;50.854;4.380;2022-07-03T16:40:42;24.60;85.30
21174;DHT22;10744;50.854;4.380;2022-07-03T16:43:11;24.60;86.40
21174;DHT22;10744;50.854;4.380;2022-07-03T16:45:39;24.70;85.90
21174;DHT22;10744;50.854;4.380;2022-07-03T16:48:14;24.80;85.70
21174;DHT22;10744;50.854;4.380;2022-07-03T16:51:00;24.70;86.80
21174;DHT22;10744;50.854;4.380;2022-07-03T16:53:27;24.80;86.80
21174;DHT22;10744;50.854;4.380;2022-07-03T16:55:53;24.60;86.10
21174;DHT22;10744;50.854;4.380;2022-07-03T16:58:22;24.40;86.70
21174;DHT22;10744;50.854;4.380;2022-07-03T17:00:49;24.00;87.00
21174;DHT22;10744;50.854;4.380;2022-07-03T17:03:17;23.60;88.50
21174;DHT22;10744;50.854;4.380;2022-07-03T17:05:45;23.60;89.70
21174;DHT22;10744;50.854;4.380;2022-07-03T17:08:14;23.40;90.50
21174;DHT22;10744;50.854;4.380;2022-07-03T17:10:41;23.50;90.10
21174;DHT22;10744;50.854;4.380;2022-07-03T17:13:09;23.50;90.20
21174;DHT22;10744;50.854;4.380;2022-07-03T17:15:35;23.50;90.50